Loxahatchee, Florida
Current Conditions -  °F | °C
As of 6:53 AM on Thursday 29 Jan 2015 (Local Time) from KPBI Reporting Station
Broken Clouds Broken Clouds  
Wind Chill: 64°   Ceiling: 4000
Heat Index: 64°   Visibility: 10mi
Dew Point: 48°   Wind: 7mph
Humidity: 56%   Direction: 70°ENE
Pressure: 30.22"   Gusts: NA
Location:  26.68°N, 80.28°W
Report Text: KPBI 291153Z 07006KT 10SM BKN040 BKN048 18/09 A3022 RMK AO2 SLP233 T01780089 10178 20100 53007
Loading
Personal Weather Stations






























Interactive Weather Map New forecast layout! Learn more

10-Day Weather Forecast

Advertisements
Track Severe Weather on mobile